New Bedford, MA

8:33 AM EDT on March 27, 2017 (GMT -0400)
Peedee's Weather | | Change Station

Elev 130 ft 41.65 °N, 70.94 °W | Updated 34 seconds ago

Overcast
Overcast
40.2 °F
Feels Like 40 °F
N
3.0
Wind Variable Wind from SSE

Today
High -- | Low -- °F
--% Chance of Precip.
Yesterday
High -- | Low -- °F
Precip. -- in
Pressure 30.19 in
Visibility 10.0 miles
Clouds Overcast 800 ft
Windchill 40 °F
Dew Point 37 °F
Humidity 90%
Rainfall 0.00 in
Snow Depth Not available.
6:34 AM 7:03 PM
Waning Crescent, 0% visible
METAR KEWB 271153Z 11009G15KT 10SM OVC008 06/03 A3019 RMK AO2 SLP224 60000 T00560033 10056 20028 58021
Pressure 30.19 in
Visibility 10.0 miles
Clouds Overcast 800 ft
Windchill 40 °F
Dew Point 37 °F
Humidity 90%
Rainfall 0.00 in
Snow Depth Not available.
6:34 AM 7:03 PM
Waning Crescent, 0% visible
METAR KEWB 271153Z 11009G15KT 10SM OVC008 06/03 A3019 RMK AO2 SLP224 60000 T00560033 10056 20028 58021

Get Severe Weather Alerts

Thanks for signing up!

Be on the lookout for a verification email in your inbox.

You'll start receiving the daily forecast at 8 AM.

×

10-Day Weather Forecast

Almanac

Astronomy

Mar. 27, 2017 Rise Set
Actual Time
Civil Twilight
Nautical Twilight
Astronomical Twilight
Moon
Length of Visible Light
Length of Day
Tomorrow will be .
, % of the Moon is Illuminated

Today's Extremes

State Highs State Lows

Community

WunderPhotos

Upload Photos

1,962,540 photos uploaded!

WunderBlog® & News

Nearby

Air Quality

  Air Quality AQ Index Pollutant
Not available.

Snow Depth

Station Depth Elevation

Earthquake Activity

City Distance Mag. Time & Date
Minimum magnitude displayed is 2.5.

Earthquake Activity

City Distance Mag. Time & Date
Minimum magnitude displayed is 2.5.

Coastal Water Temperatures

Place Temperature

Stations

Nearby Weather Stations

Station Location Temp. Windchill Dew Point Humidity Wind Precip. Elev Updated Type
                   

Watches & Warnings

There are currently no watches in effect.